sensor_id;sensor_type;location;lat;lon;timestamp;P1;durP1;ratioP1;P2;durP2;ratioP2
6693;SDS011;3384;42.628;23.380;2022-11-15T00:02:02;20.93;;;14.00;;
6693;SDS011;3384;42.628;23.380;2022-11-15T00:04:29;25.67;;;15.20;;
6693;SDS011;3384;42.628;23.380;2022-11-15T00:06:56;23.07;;;14.90;;
6693;SDS011;3384;42.628;23.380;2022-11-15T00:09:23;20.53;;;14.03;;
6693;SDS011;3384;42.628;23.380;2022-11-15T00:11:50;19.73;;;13.13;;
6693;SDS011;3384;42.628;23.380;2022-11-15T00:14:19;25.27;;;15.23;;
6693;SDS011;3384;42.628;23.380;2022-11-15T00:16:46;18.13;;;12.90;;
6693;SDS011;3384;42.628;23.380;2022-11-15T00:19:13;20.80;;;13.80;;
6693;SDS011;3384;42.628;23.380;2022-11-15T00:21:40;25.67;;;15.23;;
6693;SDS011;3384;42.628;23.380;2022-11-15T00:24:06;34.10;;;19.43;;
6693;SDS011;3384;42.628;23.380;2022-11-15T00:26:33;30.23;;;18.37;;
6693;SDS011;3384;42.628;23.380;2022-11-15T00:29:00;44.90;;;22.23;;
6693;SDS011;3384;42.628;23.380;2022-11-15T00:31:28;36.63;;;21.73;;
6693;SDS011;3384;42.628;23.380;2022-11-15T00:34:05;41.33;;;21.30;;
6693;SDS011;3384;42.628;23.380;2022-11-15T00:36:32;32.67;;;17.70;;
6693;SDS011;3384;42.628;23.380;2022-11-15T00:38:59;41.77;;;23.67;;
6693;SDS011;3384;42.628;23.380;2022-11-15T00:41:26;38.03;;;20.83;;
6693;SDS011;3384;42.628;23.380;2022-11-15T00:43:53;29.07;;;18.00;;
6693;SDS011;3384;42.628;23.380;2022-11-15T00:46:20;32.17;;;19.47;;
6693;SDS011;3384;42.628;23.380;2022-11-15T00:48:48;38.93;;;18.63;;
6693;SDS011;3384;42.628;23.380;2022-11-15T00:51:15;30.27;;;19.60;;
6693;SDS011;3384;42.628;23.380;2022-11-15T00:53:42;32.83;;;19.30;;
6693;SDS011;3384;42.628;23.380;2022-11-15T00:56:08;31.37;;;18.87;;
6693;SDS011;3384;42.628;23.380;2022-11-15T00:58:35;30.50;;;16.30;;
6693;SDS011;3384;42.628;23.380;2022-11-15T01:01:08;24.70;;;16.80;;
6693;SDS011;3384;42.628;23.380;2022-11-15T01:03:36;29.23;;;16.00;;
6693;SDS011;3384;42.628;23.380;2022-11-15T01:06:06;23.77;;;16.40;;
6693;SDS011;3384;42.628;23.380;2022-11-15T01:08:37;21.40;;;16.00;;
6693;SDS011;3384;42.628;23.380;2022-11-15T01:11:05;31.53;;;15.83;;
6693;SDS011;3384;42.628;23.380;2022-11-15T01:13:35;24.53;;;16.00;;
6693;SDS011;3384;42.628;23.380;2022-11-15T01:16:07;38.87;;;17.97;;
6693;SDS011;3384;42.628;23.380;2022-11-15T01:18:35;29.17;;;17.67;;
6693;SDS011;3384;42.628;23.380;2022-11-15T01:21:04;28.43;;;18.57;;
6693;SDS011;3384;42.628;23.380;2022-11-15T01:23:34;35.20;;;18.57;;
6693;SDS011;3384;42.628;23.380;2022-11-15T01:26:02;29.60;;;17.97;;
6693;SDS011;3384;42.628;23.380;2022-11-15T01:28:31;38.87;;;19.53;;
6693;SDS011;3384;42.628;23.380;2022-11-15T01:30:58;42.67;;;19.80;;
6693;SDS011;3384;42.628;23.380;2022-11-15T01:33:25;38.63;;;19.80;;
6693;SDS011;3384;42.628;23.380;2022-11-15T01:35:53;33.00;;;19.07;;
6693;SDS011;3384;42.628;23.380;2022-11-15T01:38:21;35.97;;;19.70;;
6693;SDS011;3384;42.628;23.380;2022-11-15T01:40:48;42.87;;;20.50;;
6693;SDS011;3384;42.628;23.380;2022-11-15T01:43:19;35.60;;;20.30;;
6693;SDS011;3384;42.628;23.380;2022-11-15T01:45:47;37.73;;;22.03;;
6693;SDS011;3384;42.628;23.380;2022-11-15T01:48:18;40.63;;;21.13;;
6693;SDS011;3384;42.628;23.380;2022-11-15T01:50:46;41.63;;;21.93;;
6693;SDS011;3384;42.628;23.380;2022-11-15T01:53:13;39.50;;;21.50;;
6693;SDS011;3384;42.628;23.380;2022-11-15T01:55:42;40.17;;;20.13;;
6693;SDS011;3384;42.628;23.380;2022-11-15T01:58:09;28.67;;;18.67;;
6693;SDS011;3384;42.628;23.380;2022-11-15T02:00:36;34.33;;;18.60;;
6693;SDS011;3384;42.628;23.380;2022-11-15T02:03:03;38.70;;;18.63;;
6693;SDS011;3384;42.628;23.380;2022-11-15T02:05:30;32.83;;;17.03;;
6693;SDS011;3384;42.628;23.380;2022-11-15T02:07:57;27.63;;;15.70;;
6693;SDS011;3384;42.628;23.380;2022-11-15T02:10:27;20.63;;;14.33;;
6693;SDS011;3384;42.628;23.380;2022-11-15T02:12:55;19.50;;;12.80;;
6693;SDS011;3384;42.628;23.380;2022-11-15T02:15:25;24.53;;;13.50;;
6693;SDS011;3384;42.628;23.380;2022-11-15T02:18:02;30.67;;;16.07;;
6693;SDS011;3384;42.628;23.380;2022-11-15T02:20:55;27.30;;;16.00;;
6693;SDS011;3384;42.628;23.380;2022-11-15T02:26:45;27.97;;;15.23;;
6693;SDS011;3384;42.628;23.380;2022-11-15T02:29:40;36.53;;;16.90;;
6693;SDS011;3384;42.628;23.380;2022-11-15T02:32:27;31.57;;;17.30;;
6693;SDS011;3384;42.628;23.380;2022-11-15T02:35:00;24.80;;;16.07;;
6693;SDS011;3384;42.628;23.380;2022-11-15T02:37:39;22.40;;;14.90;;
6693;SDS011;3384;42.628;23.380;2022-11-15T02:40:12;27.33;;;15.03;;
6693;SDS011;3384;42.628;23.380;2022-11-15T02:42:47;19.60;;;13.57;;
6693;SDS011;3384;42.628;23.380;2022-11-15T02:45:36;21.90;;;15.03;;
6693;SDS011;3384;42.628;23.380;2022-11-15T02:48:10;19.53;;;12.33;;
6693;SDS011;3384;42.628;23.380;2022-11-15T02:50:38;22.73;;;13.67;;
6693;SDS011;3384;42.628;23.380;2022-11-15T02:53:05;16.80;;;11.77;;
6693;SDS011;3384;42.628;23.380;2022-11-15T02:55:33;13.20;;;11.67;;
6693;SDS011;3384;42.628;23.380;2022-11-15T02:58:07;12.20;;;10.87;;
6693;SDS011;3384;42.628;23.380;2022-11-15T03:00:46;18.17;;;12.67;;
6693;SDS011;3384;42.628;23.380;2022-11-15T03:03:25;15.60;;;10.53;;
6693;SDS011;3384;42.628;23.380;2022-11-15T03:06:05;13.33;;;11.03;;
6693;SDS011;3384;42.628;23.380;2022-11-15T03:08:39;14.10;;;10.43;;
6693;SDS011;3384;42.628;23.380;2022-11-15T03:11:16;19.47;;;10.77;;
6693;SDS011;3384;42.628;23.380;2022-11-15T03:13:46;11.93;;;10.03;;
6693;SDS011;3384;42.628;23.380;2022-11-15T03:16:20;11.00;;;9.87;;
6693;SDS011;3384;42.628;23.380;2022-11-15T03:18:54;24.63;;;12.33;;
6693;SDS011;3384;42.628;23.380;2022-11-15T03:21:25;15.83;;;10.80;;
6693;SDS011;3384;42.628;23.380;2022-11-15T03:23:54;13.27;;;10.20;;
6693;SDS011;3384;42.628;23.380;2022-11-15T03:26:24;13.23;;;10.67;;
6693;SDS011;3384;42.628;23.380;2022-11-15T03:28:53;14.63;;;10.90;;
6693;SDS011;3384;42.628;23.380;2022-11-15T03:31:23;14.47;;;10.80;;
6693;SDS011;3384;42.628;23.380;2022-11-15T03:34:18;20.07;;;8.80;;
6693;SDS011;3384;42.628;23.380;2022-11-15T03:36:51;13.90;;;9.57;;
6693;SDS011;3384;42.628;23.380;2022-11-15T03:39:18;14.60;;;9.70;;
6693;SDS011;3384;42.628;23.380;2022-11-15T03:41:47;14.00;;;10.60;;
6693;SDS011;3384;42.628;23.380;2022-11-15T03:44:21;18.77;;;11.53;;
6693;SDS011;3384;42.628;23.380;2022-11-15T03:47:01;14.37;;;10.67;;
6693;SDS011;3384;42.628;23.380;2022-11-15T03:49:35;12.57;;;10.20;;
6693;SDS011;3384;42.628;23.380;2022-11-15T03:52:05;13.40;;;10.03;;
6693;SDS011;3384;42.628;23.380;2022-11-15T03:54:32;11.83;;;9.40;;
6693;SDS011;3384;42.628;23.380;2022-11-15T03:56:59;12.50;;;10.67;;
6693;SDS011;3384;42.628;23.380;2022-11-15T03:59:26;10.57;;;8.73;;
6693;SDS011;3384;42.628;23.380;2022-11-15T04:01:53;10.53;;;9.20;;
6693;SDS011;3384;42.628;23.380;2022-11-15T04:04:20;11.97;;;10.13;;
6693;SDS011;3384;42.628;23.380;2022-11-15T04:06:48;11.00;;;9.97;;
6693;SDS011;3384;42.628;23.380;2022-11-15T04:09:15;29.33;;;20.30;;
6693;SDS011;3384;42.628;23.380;2022-11-15T04:11:41;31.40;;;22.20;;
6693;SDS011;3384;42.628;23.380;2022-11-15T04:14:08;56.63;;;27.00;;
6693;SDS011;3384;42.628;23.380;2022-11-15T04:16:35;78.03;;;28.10;;
6693;SDS011;3384;42.628;23.380;2022-11-15T04:19:02;144.33;;;34.33;;
6693;SDS011;3384;42.628;23.380;2022-11-15T04:21:48;117.70;;;30.37;;
6693;SDS011;3384;42.628;23.380;2022-11-15T04:24:32;76.23;;;30.40;;
6693;SDS011;3384;42.628;23.380;2022-11-15T04:26:59;68.77;;;30.60;;
6693;SDS011;3384;42.628;23.380;2022-11-15T04:29:26;78.90;;;30.40;;
6693;SDS011;3384;42.628;23.380;2022-11-15T04:32:02;61.33;;;24.60;;
6693;SDS011;3384;42.628;23.380;2022-11-15T04:34:29;52.70;;;24.97;;
6693;SDS011;3384;42.628;23.380;2022-11-15T04:36:58;88.43;;;26.60;;
6693;SDS011;3384;42.628;23.380;2022-11-15T04:39:41;89.43;;;27.90;;
6693;SDS011;3384;42.628;23.380;2022-11-15T04:42:09;94.50;;;27.33;;
6693;SDS011;3384;42.628;23.380;2022-11-15T04:44:36;166.77;;;26.10;;
6693;SDS011;3384;42.628;23.380;2022-11-15T04:47:03;174.20;;;26.00;;
6693;SDS011;3384;42.628;23.380;2022-11-15T04:49:31;145.23;;;25.33;;
6693;SDS011;3384;42.628;23.380;2022-11-15T04:51:59;108.20;;;25.23;;
6693;SDS011;3384;42.628;23.380;2022-11-15T04:54:26;181.20;;;26.10;;
6693;SDS011;3384;42.628;23.380;2022-11-15T04:56:53;51.33;;;25.57;;
6693;SDS011;3384;42.628;23.380;2022-11-15T04:59:20;62.47;;;24.70;;
6693;SDS011;3384;42.628;23.380;2022-11-15T05:01:47;86.80;;;24.47;;
6693;SDS011;3384;42.628;23.380;2022-11-15T05:04:16;59.63;;;23.93;;
6693;SDS011;3384;42.628;23.380;2022-11-15T05:06:44;53.70;;;25.77;;
6693;SDS011;3384;42.628;23.380;2022-11-15T05:09:17;56.57;;;24.27;;
6693;SDS011;3384;42.628;23.380;2022-11-15T05:11:47;57.60;;;25.63;;
6693;SDS011;3384;42.628;23.380;2022-11-15T05:14:14;52.37;;;26.13;;
6693;SDS011;3384;42.628;23.380;2022-11-15T05:16:41;47.63;;;23.63;;
6693;SDS011;3384;42.628;23.380;2022-11-15T05:19:09;43.67;;;23.10;;
6693;SDS011;3384;42.628;23.380;2022-11-15T05:21:36;42.33;;;23.70;;
6693;SDS011;3384;42.628;23.380;2022-11-15T05:24:03;52.70;;;24.60;;
6693;SDS011;3384;42.628;23.380;2022-11-15T05:26:32;48.07;;;25.00;;
6693;SDS011;3384;42.628;23.380;2022-11-15T05:28:59;46.93;;;23.80;;
6693;SDS011;3384;42.628;23.380;2022-11-15T05:31:26;47.43;;;23.07;;
6693;SDS011;3384;42.628;23.380;2022-11-15T05:33:53;54.80;;;25.07;;
6693;SDS011;3384;42.628;23.380;2022-11-15T05:36:25;48.60;;;24.03;;
6693;SDS011;3384;42.628;23.380;2022-11-15T05:38:57;43.73;;;17.93;;
6693;SDS011;3384;42.628;23.380;2022-11-15T05:41:25;34.73;;;17.40;;
6693;SDS011;3384;42.628;23.380;2022-11-15T05:43:57;29.67;;;16.90;;
6693;SDS011;3384;42.628;23.380;2022-11-15T05:46:24;35.67;;;18.63;;
6693;SDS011;3384;42.628;23.380;2022-11-15T05:48:52;46.73;;;22.00;;
6693;SDS011;3384;42.628;23.380;2022-11-15T05:51:21;41.23;;;20.67;;
6693;SDS011;3384;42.628;23.380;2022-11-15T05:53:49;52.00;;;20.97;;
6693;SDS011;3384;42.628;23.380;2022-11-15T05:56:18;47.60;;;22.20;;
6693;SDS011;3384;42.628;23.380;2022-11-15T05:58:45;53.67;;;24.33;;
6693;SDS011;3384;42.628;23.380;2022-11-15T06:01:13;54.97;;;24.07;;
6693;SDS011;3384;42.628;23.380;2022-11-15T06:03:40;55.70;;;24.60;;
6693;SDS011;3384;42.628;23.380;2022-11-15T06:06:07;54.27;;;22.27;;
6693;SDS011;3384;42.628;23.380;2022-11-15T06:08:34;60.07;;;24.90;;
6693;SDS011;3384;42.628;23.380;2022-11-15T06:11:04;70.63;;;26.17;;
6693;SDS011;3384;42.628;23.380;2022-11-15T06:13:32;52.70;;;22.70;;
6693;SDS011;3384;42.628;23.380;2022-11-15T06:15:59;69.57;;;23.87;;
6693;SDS011;3384;42.628;23.380;2022-11-15T06:18:28;51.63;;;21.57;;
6693;SDS011;3384;42.628;23.380;2022-11-15T06:20:58;39.10;;;20.60;;
6693;SDS011;3384;42.628;23.380;2022-11-15T06:23:25;42.17;;;19.33;;
6693;SDS011;3384;42.628;23.380;2022-11-15T06:25:52;37.17;;;19.67;;
6693;SDS011;3384;42.628;23.380;2022-11-15T06:28:19;51.43;;;21.60;;
6693;SDS011;3384;42.628;23.380;2022-11-15T06:30:46;79.23;;;27.83;;
6693;SDS011;3384;42.628;23.380;2022-11-15T06:33:13;60.80;;;28.10;;
6693;SDS011;3384;42.628;23.380;2022-11-15T06:35:41;69.83;;;29.40;;
6693;SDS011;3384;42.628;23.380;2022-11-15T06:38:09;73.27;;;28.20;;
6693;SDS011;3384;42.628;23.380;2022-11-15T06:40:37;70.27;;;27.73;;
6693;SDS011;3384;42.628;23.380;2022-11-15T06:43:05;66.90;;;26.90;;
6693;SDS011;3384;42.628;23.380;2022-11-15T06:45:32;63.63;;;27.47;;
6693;SDS011;3384;42.628;23.380;2022-11-15T06:47:59;55.23;;;25.77;;
6693;SDS011;3384;42.628;23.380;2022-11-15T06:50:26;61.53;;;27.00;;
6693;SDS011;3384;42.628;23.380;2022-11-15T06:52:54;61.17;;;25.20;;
6693;SDS011;3384;42.628;23.380;2022-11-15T06:55:21;58.17;;;24.07;;
6693;SDS011;3384;42.628;23.380;2022-11-15T06:57:48;52.60;;;25.87;;
6693;SDS011;3384;42.628;23.380;2022-11-15T07:00:16;61.57;;;26.20;;
6693;SDS011;3384;42.628;23.380;2022-11-15T07:02:44;57.37;;;26.20;;
6693;SDS011;3384;42.628;23.380;2022-11-15T07:05:12;53.43;;;24.20;;
6693;SDS011;3384;42.628;23.380;2022-11-15T07:07:42;38.00;;;20.33;;
6693;SDS011;3384;42.628;23.380;2022-11-15T07:10:10;34.30;;;18.13;;
6693;SDS011;3384;42.628;23.380;2022-11-15T07:12:37;39.03;;;21.40;;
6693;SDS011;3384;42.628;23.380;2022-11-15T07:15:05;54.13;;;22.07;;
6693;SDS011;3384;42.628;23.380;2022-11-15T07:17:32;41.00;;;18.47;;
6693;SDS011;3384;42.628;23.380;2022-11-15T07:19:59;33.60;;;17.10;;
6693;SDS011;3384;42.628;23.380;2022-11-15T07:22:26;32.87;;;18.47;;
6693;SDS011;3384;42.628;23.380;2022-11-15T07:24:53;39.00;;;17.47;;
6693;SDS011;3384;42.628;23.380;2022-11-15T07:27:21;34.43;;;20.03;;
6693;SDS011;3384;42.628;23.380;2022-11-15T07:29:48;39.87;;;20.33;;
6693;SDS011;3384;42.628;23.380;2022-11-15T07:32:15;32.93;;;17.80;;
6693;SDS011;3384;42.628;23.380;2022-11-15T07:34:42;29.93;;;16.10;;
6693;SDS011;3384;42.628;23.380;2022-11-15T07:37:10;29.70;;;15.53;;
6693;SDS011;3384;42.628;23.380;2022-11-15T07:39:37;34.33;;;18.57;;
6693;SDS011;3384;42.628;23.380;2022-11-15T07:42:04;31.40;;;18.10;;
6693;SDS011;3384;42.628;23.380;2022-11-15T07:44:50;43.83;;;19.57;;
6693;SDS011;3384;42.628;23.380;2022-11-15T07:47:17;40.40;;;18.90;;
6693;SDS011;3384;42.628;23.380;2022-11-15T07:49:44;44.47;;;22.23;;
6693;SDS011;3384;42.628;23.380;2022-11-15T07:52:11;51.50;;;22.50;;
6693;SDS011;3384;42.628;23.380;2022-11-15T07:54:38;48.97;;;23.27;;
6693;SDS011;3384;42.628;23.380;2022-11-15T07:57:05;49.53;;;22.70;;
6693;SDS011;3384;42.628;23.380;2022-11-15T07:59:34;47.53;;;24.20;;
6693;SDS011;3384;42.628;23.380;2022-11-15T08:02:02;57.87;;;22.93;;
6693;SDS011;3384;42.628;23.380;2022-11-15T08:04:29;56.17;;;24.57;;
6693;SDS011;3384;42.628;23.380;2022-11-15T08:06:56;48.43;;;23.10;;
6693;SDS011;3384;42.628;23.380;2022-11-15T08:09:22;64.23;;;26.53;;
6693;SDS011;3384;42.628;23.380;2022-11-15T08:11:49;70.80;;;33.47;;
6693;SDS011;3384;42.628;23.380;2022-11-15T08:14:16;69.00;;;32.43;;
6693;SDS011;3384;42.628;23.380;2022-11-15T08:16:43;84.40;;;34.67;;
6693;SDS011;3384;42.628;23.380;2022-11-15T08:19:11;99.87;;;39.10;;
6693;SDS011;3384;42.628;23.380;2022-11-15T08:21:38;84.77;;;35.50;;
6693;SDS011;3384;42.628;23.380;2022-11-15T08:24:05;81.00;;;36.40;;
6693;SDS011;3384;42.628;23.380;2022-11-15T08:26:34;84.40;;;37.63;;
6693;SDS011;3384;42.628;23.380;2022-11-15T08:29:01;80.30;;;36.73;;
6693;SDS011;3384;42.628;23.380;2022-11-15T08:31:28;91.70;;;37.13;;
6693;SDS011;3384;42.628;23.380;2022-11-15T08:33:55;87.03;;;37.53;;
6693;SDS011;3384;42.628;23.380;2022-11-15T08:36:23;83.47;;;37.70;;
6693;SDS011;3384;42.628;23.380;2022-11-15T08:38:50;85.67;;;36.63;;
6693;SDS011;3384;42.628;23.380;2022-11-15T08:41:19;81.43;;;36.50;;
6693;SDS011;3384;42.628;23.380;2022-11-15T08:43:52;86.57;;;33.30;;
6693;SDS011;3384;42.628;23.380;2022-11-15T08:46:18;81.50;;;37.70;;
6693;SDS011;3384;42.628;23.380;2022-11-15T08:48:45;93.20;;;39.70;;
6693;SDS011;3384;42.628;23.380;2022-11-15T08:51:15;73.47;;;34.30;;
6693;SDS011;3384;42.628;23.380;2022-11-15T08:53:44;89.57;;;35.60;;
6693;SDS011;3384;42.628;23.380;2022-11-15T08:56:12;91.73;;;39.20;;
6693;SDS011;3384;42.628;23.380;2022-11-15T08:58:40;98.43;;;36.83;;
6693;SDS011;3384;42.628;23.380;2022-11-15T09:01:13;73.77;;;35.47;;
6693;SDS011;3384;42.628;23.380;2022-11-15T09:03:41;91.57;;;39.70;;
6693;SDS011;3384;42.628;23.380;2022-11-15T09:06:08;98.60;;;40.13;;
6693;SDS011;3384;42.628;23.380;2022-11-15T09:08:35;83.30;;;40.63;;
6693;SDS011;3384;42.628;23.380;2022-11-15T09:11:04;93.00;;;39.03;;
6693;SDS011;3384;42.628;23.380;2022-11-15T09:13:31;92.47;;;39.27;;
6693;SDS011;3384;42.628;23.380;2022-11-15T09:15:58;97.83;;;40.10;;
6693;SDS011;3384;42.628;23.380;2022-11-15T09:18:25;94.60;;;39.37;;
6693;SDS011;3384;42.628;23.380;2022-11-15T09:20:54;99.47;;;41.07;;
6693;SDS011;3384;42.628;23.380;2022-11-15T09:23:22;104.33;;;42.07;;
6693;SDS011;3384;42.628;23.380;2022-11-15T09:25:49;92.60;;;41.73;;
6693;SDS011;3384;42.628;23.380;2022-11-15T09:28:18;85.13;;;39.03;;
6693;SDS011;3384;42.628;23.380;2022-11-15T09:30:45;83.23;;;40.07;;
6693;SDS011;3384;42.628;23.380;2022-11-15T09:33:12;95.27;;;40.60;;
6693;SDS011;3384;42.628;23.380;2022-11-15T09:35:39;102.97;;;39.17;;
6693;SDS011;3384;42.628;23.380;2022-11-15T09:38:07;91.90;;;42.60;;
6693;SDS011;3384;42.628;23.380;2022-11-15T09:40:35;93.23;;;42.47;;
6693;SDS011;3384;42.628;23.380;2022-11-15T09:43:10;91.23;;;40.80;;
6693;SDS011;3384;42.628;23.380;2022-11-15T09:45:57;107.67;;;43.33;;
6693;SDS011;3384;42.628;23.380;2022-11-15T09:48:38;94.70;;;43.10;;
6693;SDS011;3384;42.628;23.380;2022-11-15T09:51:17;87.83;;;42.53;;
6693;SDS011;3384;42.628;23.380;2022-11-15T09:53:52;105.63;;;41.57;;
6693;SDS011;3384;42.628;23.380;2022-11-15T09:56:27;101.83;;;39.50;;
6693;SDS011;3384;42.628;23.380;2022-11-15T09:59:00;89.37;;;40.20;;
6693;SDS011;3384;42.628;23.380;2022-11-15T10:01:40;85.40;;;42.83;;
6693;SDS011;3384;42.628;23.380;2022-11-15T10:04:15;86.07;;;40.27;;
6693;SDS011;3384;42.628;23.380;2022-11-15T10:06:44;90.90;;;41.13;;
6693;SDS011;3384;42.628;23.380;2022-11-15T10:09:15;92.57;;;43.20;;
6693;SDS011;3384;42.628;23.380;2022-11-15T10:11:45;110.37;;;44.10;;
6693;SDS011;3384;42.628;23.380;2022-11-15T10:14:14;108.03;;;46.07;;
6693;SDS011;3384;42.628;23.380;2022-11-15T10:16:52;95.37;;;41.50;;
6693;SDS011;3384;42.628;23.380;2022-11-15T10:19:34;84.40;;;42.50;;
6693;SDS011;3384;42.628;23.380;2022-11-15T10:22:11;82.80;;;42.00;;
6693;SDS011;3384;42.628;23.380;2022-11-15T10:24:47;93.30;;;42.97;;
6693;SDS011;3384;42.628;23.380;2022-11-15T10:27:18;104.53;;;42.67;;
6693;SDS011;3384;42.628;23.380;2022-11-15T10:29:48;104.50;;;41.03;;
6693;SDS011;3384;42.628;23.380;2022-11-15T10:32:17;93.10;;;40.27;;
6693;SDS011;3384;42.628;23.380;2022-11-15T10:34:45;87.63;;;38.87;;
6693;SDS011;3384;42.628;23.380;2022-11-15T10:37:13;80.03;;;39.07;;
6693;SDS011;3384;42.628;23.380;2022-11-15T10:39:40;88.70;;;40.40;;
6693;SDS011;3384;42.628;23.380;2022-11-15T10:42:16;94.33;;;37.80;;
6693;SDS011;3384;42.628;23.380;2022-11-15T10:44:44;73.90;;;37.27;;
6693;SDS011;3384;42.628;23.380;2022-11-15T10:47:23;84.67;;;41.40;;
6693;SDS011;3384;42.628;23.380;2022-11-15T10:49:56;79.77;;;39.37;;
6693;SDS011;3384;42.628;23.380;2022-11-15T10:52:24;93.47;;;43.60;;
6693;SDS011;3384;42.628;23.380;2022-11-15T10:54:52;92.63;;;42.90;;
6693;SDS011;3384;42.628;23.380;2022-11-15T10:57:22;91.13;;;44.20;;
6693;SDS011;3384;42.628;23.380;2022-11-15T10:59:52;90.87;;;42.97;;
6693;SDS011;3384;42.628;23.380;2022-11-15T11:02:30;88.83;;;41.60;;
6693;SDS011;3384;42.628;23.380;2022-11-15T11:04:59;84.33;;;41.60;;
6693;SDS011;3384;42.628;23.380;2022-11-15T11:07:27;73.07;;;38.47;;
6693;SDS011;3384;42.628;23.380;2022-11-15T11:09:59;84.87;;;38.77;;
6693;SDS011;3384;42.628;23.380;2022-11-15T11:12:31;91.20;;;41.70;;
6693;SDS011;3384;42.628;23.380;2022-11-15T11:14:59;74.87;;;36.80;;
6693;SDS011;3384;42.628;23.380;2022-11-15T11:17:32;78.30;;;37.87;;
6693;SDS011;3384;42.628;23.380;2022-11-15T11:20:10;79.70;;;37.20;;
6693;SDS011;3384;42.628;23.380;2022-11-15T11:22:50;86.13;;;41.03;;
6693;SDS011;3384;42.628;23.380;2022-11-15T11:25:28;89.50;;;40.73;;
6693;SDS011;3384;42.628;23.380;2022-11-15T11:28:05;85.70;;;41.83;;
6693;SDS011;3384;42.628;23.380;2022-11-15T11:30:45;79.67;;;39.43;;
6693;SDS011;3384;42.628;23.380;2022-11-15T11:33:29;91.03;;;38.03;;
6693;SDS011;3384;42.628;23.380;2022-11-15T11:36:02;79.97;;;37.30;;
6693;SDS011;3384;42.628;23.380;2022-11-15T11:38:44;77.80;;;38.10;;
6693;SDS011;3384;42.628;23.380;2022-11-15T11:41:21;76.17;;;36.40;;
6693;SDS011;3384;42.628;23.380;2022-11-15T11:44:05;93.00;;;35.90;;
6693;SDS011;3384;42.628;23.380;2022-11-15T11:46:48;76.00;;;36.13;;
6693;SDS011;3384;42.628;23.380;2022-11-15T11:49:24;91.03;;;36.57;;
6693;SDS011;3384;42.628;23.380;2022-11-15T11:51:55;67.43;;;36.70;;
6693;SDS011;3384;42.628;23.380;2022-11-15T11:54:29;80.33;;;36.10;;
6693;SDS011;3384;42.628;23.380;2022-11-15T11:57:05;72.97;;;33.83;;
6693;SDS011;3384;42.628;23.380;2022-11-15T11:59:41;71.13;;;34.83;;
6693;SDS011;3384;42.628;23.380;2022-11-15T12:02:12;72.70;;;36.07;;
6693;SDS011;3384;42.628;23.380;2022-11-15T12:04:45;74.53;;;33.70;;
6693;SDS011;3384;42.628;23.380;2022-11-15T12:07:17;85.83;;;37.03;;
6693;SDS011;3384;42.628;23.380;2022-11-15T12:09:51;74.00;;;35.33;;
6693;SDS011;3384;42.628;23.380;2022-11-15T12:12:25;72.73;;;36.63;;
6693;SDS011;3384;42.628;23.380;2022-11-15T12:14:59;70.83;;;35.07;;
6693;SDS011;3384;42.628;23.380;2022-11-15T12:17:28;74.10;;;34.77;;
6693;SDS011;3384;42.628;23.380;2022-11-15T12:19:59;73.30;;;35.10;;
6693;SDS011;3384;42.628;23.380;2022-11-15T12:22:32;98.33;;;39.13;;
6693;SDS011;3384;42.628;23.380;2022-11-15T12:25:07;65.67;;;34.97;;
6693;SDS011;3384;42.628;23.380;2022-11-15T12:27:42;65.90;;;35.07;;
6693;SDS011;3384;42.628;23.380;2022-11-15T12:30:15;71.20;;;35.87;;
6693;SDS011;3384;42.628;23.380;2022-11-15T12:32:49;68.20;;;36.20;;
6693;SDS011;3384;42.628;23.380;2022-11-15T12:35:23;63.07;;;34.70;;
6693;SDS011;3384;42.628;23.380;2022-11-15T12:37:53;66.83;;;35.57;;
6693;SDS011;3384;42.628;23.380;2022-11-15T12:40:31;66.40;;;34.50;;
6693;SDS011;3384;42.628;23.380;2022-11-15T12:46:04;65.37;;;34.20;;
6693;SDS011;3384;42.628;23.380;2022-11-15T12:51:23;76.93;;;37.43;;
6693;SDS011;3384;42.628;23.380;2022-11-15T12:54:53;61.83;;;34.60;;
6693;SDS011;3384;42.628;23.380;2022-11-15T12:58:07;72.80;;;35.50;;
6693;SDS011;3384;42.628;23.380;2022-11-15T13:00:53;67.80;;;35.00;;
6693;SDS011;3384;42.628;23.380;2022-11-15T13:03:24;71.43;;;35.57;;
6693;SDS011;3384;42.628;23.380;2022-11-15T13:06:05;79.67;;;36.00;;
6693;SDS011;3384;42.628;23.380;2022-11-15T13:08:53;62.23;;;33.97;;
6693;SDS011;3384;42.628;23.380;2022-11-15T13:17:23;86.40;;;34.07;;
6693;SDS011;3384;42.628;23.380;2022-11-15T13:22:59;62.60;;;33.90;;
6693;SDS011;3384;42.628;23.380;2022-11-15T13:25:53;71.33;;;34.63;;
6693;SDS011;3384;42.628;23.380;2022-11-15T13:28:30;71.80;;;33.87;;
6693;SDS011;3384;42.628;23.380;2022-11-15T13:31:01;68.17;;;36.97;;
6693;SDS011;3384;42.628;23.380;2022-11-15T13:33:40;61.83;;;32.87;;
6693;SDS011;3384;42.628;23.380;2022-11-15T13:36:08;70.80;;;34.90;;
6693;SDS011;3384;42.628;23.380;2022-11-15T13:38:40;67.73;;;36.57;;
6693;SDS011;3384;42.628;23.380;2022-11-15T13:41:13;60.83;;;33.37;;
6693;SDS011;3384;42.628;23.380;2022-11-15T13:43:47;88.30;;;36.70;;
6693;SDS011;3384;42.628;23.380;2022-11-15T13:46:16;76.17;;;33.93;;
6693;SDS011;3384;42.628;23.380;2022-11-15T13:48:44;66.50;;;32.90;;
6693;SDS011;3384;42.628;23.380;2022-11-15T13:51:15;80.67;;;34.67;;
6693;SDS011;3384;42.628;23.380;2022-11-15T13:53:48;75.40;;;36.80;;
6693;SDS011;3384;42.628;23.380;2022-11-15T13:56:20;70.83;;;33.97;;
6693;SDS011;3384;42.628;23.380;2022-11-15T13:58:49;68.17;;;33.30;;
6693;SDS011;3384;42.628;23.380;2022-11-15T14:01:17;85.90;;;33.27;;
6693;SDS011;3384;42.628;23.380;2022-11-15T14:03:55;63.73;;;31.10;;
6693;SDS011;3384;42.628;23.380;2022-11-15T14:06:24;71.83;;;34.40;;
6693;SDS011;3384;42.628;23.380;2022-11-15T14:09:01;69.33;;;36.07;;
6693;SDS011;3384;42.628;23.380;2022-11-15T14:11:49;75.77;;;34.03;;
6693;SDS011;3384;42.628;23.380;2022-11-15T14:14:19;78.67;;;35.70;;
6693;SDS011;3384;42.628;23.380;2022-11-15T14:16:48;73.20;;;32.67;;
6693;SDS011;3384;42.628;23.380;2022-11-15T14:19:33;79.70;;;35.67;;
6693;SDS011;3384;42.628;23.380;2022-11-15T14:22:07;93.97;;;36.80;;
6693;SDS011;3384;42.628;23.380;2022-11-15T14:24:39;83.27;;;36.80;;
6693;SDS011;3384;42.628;23.380;2022-11-15T14:27:17;71.53;;;33.40;;
6693;SDS011;3384;42.628;23.380;2022-11-15T14:29:47;97.03;;;36.27;;
6693;SDS011;3384;42.628;23.380;2022-11-15T14:32:15;69.43;;;33.50;;
6693;SDS011;3384;42.628;23.380;2022-11-15T14:34:44;88.67;;;34.80;;
6693;SDS011;3384;42.628;23.380;2022-11-15T14:37:19;95.20;;;34.47;;
6693;SDS011;3384;42.628;23.380;2022-11-15T14:39:48;75.97;;;34.73;;
6693;SDS011;3384;42.628;23.380;2022-11-15T14:42:15;86.70;;;36.30;;
6693;SDS011;3384;42.628;23.380;2022-11-15T14:44:42;77.30;;;37.20;;
6693;SDS011;3384;42.628;23.380;2022-11-15T14:47:10;105.00;;;39.20;;
6693;SDS011;3384;42.628;23.380;2022-11-15T14:49:37;85.33;;;39.20;;
6693;SDS011;3384;42.628;23.380;2022-11-15T14:52:07;100.40;;;38.13;;
6693;SDS011;3384;42.628;23.380;2022-11-15T14:54:43;77.13;;;37.47;;
6693;SDS011;3384;42.628;23.380;2022-11-15T14:57:10;83.13;;;39.67;;
6693;SDS011;3384;42.628;23.380;2022-11-15T14:59:37;90.03;;;38.90;;
6693;SDS011;3384;42.628;23.380;2022-11-15T15:02:07;80.10;;;37.00;;
6693;SDS011;3384;42.628;23.380;2022-11-15T15:04:40;85.20;;;37.47;;
6693;SDS011;3384;42.628;23.380;2022-11-15T15:07:07;70.80;;;36.33;;
6693;SDS011;3384;42.628;23.380;2022-11-15T15:09:34;69.20;;;37.00;;
6693;SDS011;3384;42.628;23.380;2022-11-15T15:12:00;82.40;;;37.50;;
6693;SDS011;3384;42.628;23.380;2022-11-15T15:14:27;78.27;;;38.97;;